createdAt,value
2019-03-12T00:02:16.900Z,4.07
2019-03-12T00:04:47.402Z,4.03
2019-03-12T00:07:17.819Z,3.98
2019-03-12T00:09:48.251Z,3.99
2019-03-12T00:12:19.088Z,4.03
2019-03-12T00:14:49.527Z,4.05
2019-03-12T00:17:19.972Z,4.10
2019-03-12T00:19:50.505Z,3.96
2019-03-12T00:22:20.938Z,4.04
2019-03-12T00:24:51.378Z,4.11
2019-03-12T00:27:21.896Z,4.11
2019-03-12T00:29:52.388Z,4.18
2019-03-12T00:32:22.838Z,4.13
2019-03-12T00:34:53.682Z,4.15
2019-03-12T00:37:24.413Z,4.22
2019-03-12T00:39:54.844Z,4.18
2019-03-12T00:42:25.319Z,4.21
2019-03-12T00:44:55.753Z,4.18
2019-03-12T00:47:26.541Z,4.15
2019-03-12T00:49:57.041Z,4.11
2019-03-12T00:52:27.447Z,4.12
2019-03-12T00:54:58.235Z,4.07
2019-03-12T00:57:28.711Z,4.06
2019-03-12T00:59:59.162Z,4.11
2019-03-12T01:02:29.588Z,4.09
2019-03-12T01:05:00.062Z,4.12
2019-03-12T01:07:30.788Z,4.07
2019-03-12T01:10:01.534Z,4.08
2019-03-12T01:12:32.412Z,4.12
2019-03-12T01:15:02.841Z,4.15
2019-03-12T01:17:33.268Z,4.09
2019-03-12T01:20:03.752Z,4.15
2019-03-12T01:22:34.500Z,4.15
2019-03-12T01:25:05.097Z,4.15
2019-03-12T01:27:35.977Z,4.14
2019-03-12T01:30:08.135Z,4.11
2019-03-12T01:32:38.616Z,4.07
2019-03-12T01:35:09.616Z,4.13
2019-03-12T01:37:40.048Z,4.01
2019-03-12T01:40:11.544Z,4.03
2019-03-12T01:42:42.021Z,4.06
2019-03-12T01:45:13.737Z,4.07
2019-03-12T01:47:44.266Z,4.09
2019-03-12T01:50:15.066Z,4.07
2019-03-12T01:52:45.764Z,4.10
2019-03-12T01:55:16.208Z,4.16
2019-03-12T01:57:46.697Z,4.11
2019-03-12T02:00:17.339Z,4.14
2019-03-12T02:02:47.873Z,4.07
2019-03-12T02:05:18.349Z,4.14
2019-03-12T02:07:48.828Z,4.13
2019-03-12T02:10:19.272Z,4.10
2019-03-12T02:12:50.349Z,4.09
2019-03-12T02:15:20.783Z,4.11
2019-03-12T02:17:51.529Z,4.04
2019-03-12T02:20:22.021Z,4.05
2019-03-12T02:22:52.730Z,4.04
2019-03-12T02:25:23.222Z,3.97
2019-03-12T02:27:53.700Z,3.92
2019-03-12T02:30:24.534Z,3.99
2019-03-12T02:32:54.973Z,3.94
2019-03-12T02:35:25.443Z,3.95
2019-03-12T02:37:55.872Z,3.99
2019-03-12T02:40:26.316Z,3.93
2019-03-12T02:42:56.789Z,3.91
2019-03-12T02:45:27.222Z,3.88
2019-03-12T02:47:57.659Z,3.79
2019-03-12T02:50:28.447Z,3.82
2019-03-12T02:52:59.214Z,3.75
2019-03-12T02:55:29.651Z,3.79
2019-03-12T02:58:00.145Z,3.79
2019-03-12T03:00:30.572Z,3.90
2019-03-12T03:03:01.026Z,3.89
2019-03-12T03:05:33.332Z,3.97
2019-03-12T03:08:09.188Z,3.96
2019-03-12T03:10:40.673Z,3.94
2019-03-12T03:13:11.103Z,3.96
2019-03-12T03:15:43.527Z,3.96
2019-03-12T03:18:14.172Z,3.90
2019-03-12T03:20:44.604Z,3.86
2019-03-12T03:23:15.387Z,3.89
2019-03-12T03:25:45.945Z,3.81
2019-03-12T03:28:16.400Z,3.83
2019-03-12T03:30:46.838Z,3.80
2019-03-12T03:33:17.326Z,3.77
2019-03-12T03:35:48.082Z,3.82
2019-03-12T03:38:18.521Z,3.75
2019-03-12T03:40:49.013Z,3.75
2019-03-12T03:43:19.448Z,3.75
2019-03-12T03:45:49.903Z,3.58
2019-03-12T03:48:20.372Z,3.55
2019-03-12T03:50:51.333Z,3.56
2019-03-12T03:53:22.130Z,3.45
2019-03-12T03:55:54.153Z,3.49
2019-03-12T03:58:24.993Z,3.40
2019-03-12T04:00:55.531Z,3.45
2019-03-12T04:03:26.775Z,3.47
2019-03-12T04:05:58.613Z,3.37
2019-03-12T04:08:30.857Z,3.40
2019-03-12T04:11:01.685Z,3.33
2019-03-12T04:13:32.118Z,3.24
2019-03-12T04:16:02.556Z,3.22
2019-03-12T04:18:33.606Z,3.23
2019-03-12T04:21:04.391Z,3.25
2019-03-12T04:23:34.818Z,3.26
2019-03-12T04:26:05.487Z,3.18
2019-03-12T04:28:35.976Z,3.16
2019-03-12T04:31:06.416Z,3.22
2019-03-12T04:34:17.188Z,3.13
2019-03-12T04:36:48.930Z,3.11
2019-03-12T04:39:19.361Z,3.09
2019-03-12T04:41:50.172Z,3.11
2019-03-12T04:44:20.602Z,3.10
2019-03-12T04:46:51.384Z,3.05
2019-03-12T04:49:21.888Z,2.95
2019-03-12T04:51:52.320Z,2.86
2019-03-12T04:54:22.752Z,2.79
2019-03-12T04:56:53.237Z,2.75
2019-03-12T04:59:23.673Z,2.75
2019-03-12T05:01:54.104Z,2.92
2019-03-12T05:04:24.564Z,2.89
2019-03-12T05:06:55.304Z,2.88
2019-03-12T05:09:25.785Z,2.81
2019-03-12T05:11:56.227Z,2.79
2019-03-12T05:14:34.153Z,2.92
2019-03-12T05:17:09.723Z,2.91
2019-03-12T05:19:45.846Z,2.76
2019-03-12T05:22:17.930Z,2.68
2019-03-12T05:24:48.393Z,2.76
2019-03-12T05:27:18.876Z,2.85
2019-03-12T05:29:49.675Z,2.75
2019-03-12T05:32:20.480Z,2.74
2019-03-12T05:34:50.958Z,2.68
2019-03-12T05:37:21.424Z,2.78
2019-03-12T05:39:51.831Z,2.70
2019-03-12T05:42:23.122Z,2.59
2019-03-12T05:44:53.805Z,2.57
2019-03-12T05:47:24.239Z,2.53
2019-03-12T05:49:54.717Z,2.53
2019-03-12T05:52:25.157Z,2.47
2019-03-12T05:54:56.191Z,2.45
2019-03-12T05:57:27.046Z,2.48
2019-03-12T05:59:57.470Z,2.45
2019-03-12T06:02:27.911Z,2.50
2019-03-12T06:04:58.733Z,2.45
2019-03-12T06:07:29.565Z,2.50
2019-03-12T06:10:00.000Z,2.54
2019-03-12T06:12:30.817Z,2.54
2019-03-12T06:15:01.252Z,2.49
2019-03-12T06:17:31.999Z,2.49
2019-03-12T06:20:02.843Z,2.57
2019-03-12T06:22:33.338Z,2.61
2019-03-12T06:25:04.262Z,2.52
2019-03-12T06:27:34.734Z,2.55
2019-03-12T06:30:05.797Z,2.62
2019-03-12T06:32:55.565Z,2.77
2019-03-12T06:35:39.663Z,2.86
2019-03-12T06:38:31.764Z,2.89
2019-03-12T06:41:39.262Z,2.86
2019-03-12T06:44:18.020Z,2.91
2019-03-12T06:47:22.603Z,2.98
2019-03-12T06:50:24.396Z,3.06
2019-03-12T06:53:16.905Z,3.08
2019-03-12T06:56:01.345Z,3.05
2019-03-12T06:58:54.770Z,3.08
2019-03-12T07:01:44.585Z,3.16
2019-03-12T07:04:36.705Z,3.23
2019-03-12T07:07:25.357Z,3.27
2019-03-12T07:10:05.913Z,3.25
2019-03-12T07:12:42.996Z,3.25
2019-03-12T07:15:31.909Z,3.36
2019-03-12T07:18:27.648Z,3.33
2019-03-12T07:21:25.876Z,3.30
2019-03-12T07:24:15.691Z,3.31
2019-03-12T07:27:05.054Z,3.41
2019-03-12T07:30:07.100Z,3.50
2019-03-12T07:32:59.531Z,3.50
2019-03-12T07:35:36.510Z,3.60
2019-03-12T07:38:24.714Z,3.62
2019-03-12T07:41:05.100Z,3.64
2019-03-12T07:43:54.627Z,3.65
2019-03-12T07:46:47.192Z,3.68
2019-03-12T07:49:36.545Z,3.70
2019-03-12T07:52:27.772Z,3.77
2019-03-12T07:55:35.552Z,3.86
2019-03-12T07:58:35.304Z,3.96
2019-03-12T08:01:14.587Z,3.97
2019-03-12T08:04:07.326Z,4.09
2019-03-12T08:07:04.662Z,4.08
2019-03-12T08:09:55.457Z,4.10
2019-03-12T08:12:45.692Z,4.17
2019-03-12T08:15:33.930Z,4.27
2019-03-12T08:18:18.690Z,4.32
2019-03-12T08:21:22.141Z,4.39
2019-03-12T08:23:54.240Z,4.39
2019-03-12T08:26:43.675Z,4.47
2019-03-12T08:29:37.774Z,4.50
2019-03-12T08:32:13.765Z,4.53
2019-03-12T08:35:09.013Z,4.57
2019-03-12T08:37:48.395Z,4.64
2019-03-12T08:40:52.427Z,4.68
2019-03-12T08:43:38.212Z,4.86
2019-03-12T08:46:27.082Z,4.95
2019-03-12T08:49:34.778Z,5.09
2019-03-12T08:52:29.640Z,5.18
2019-03-12T08:55:22.163Z,5.29
2019-03-12T08:58:29.834Z,5.18
2019-03-12T09:01:18.241Z,5.15
2019-03-12T09:04:16.737Z,5.19
2019-03-12T09:06:56.453Z,5.43
2019-03-12T09:09:44.443Z,5.41
2019-03-12T09:12:33.855Z,5.37
2019-03-12T09:15:35.320Z,5.38
2019-03-12T09:18:27.561Z,5.42
2019-03-12T09:21:29.008Z,5.68
2019-03-12T09:24:30.672Z,5.74
2019-03-12T09:27:20.039Z,6.08
2019-03-12T09:30:03.283Z,6.30
2019-03-12T09:32:50.337Z,6.44
2019-03-12T09:35:28.282Z,6.62
2019-03-12T09:38:15.759Z,6.73
2019-03-12T09:41:04.277Z,7.03
2019-03-12T09:43:48.092Z,7.20
2019-03-12T09:46:39.690Z,7.16
2019-03-12T09:49:27.588Z,6.90
2019-03-12T09:52:14.223Z,6.97
2019-03-12T09:55:07.622Z,6.89
2019-03-12T09:58:06.965Z,6.84
2019-03-12T10:00:49.531Z,7.06
2019-03-12T10:03:44.971Z,7.09
2019-03-12T10:06:40.321Z,7.06
2019-03-12T10:09:36.610Z,6.91
2019-03-12T10:12:28.757Z,6.83
2019-03-12T10:15:18.152Z,6.83
2019-03-12T10:17:55.924Z,6.99
2019-03-12T10:20:36.935Z,7.09
2019-03-12T10:23:32.114Z,7.08
2019-03-12T10:26:24.257Z,7.09
2019-03-12T10:29:20.164Z,7.07
2019-03-12T10:32:07.380Z,6.98
2019-03-12T10:34:50.563Z,6.95
2019-03-12T10:37:43.041Z,6.95
2019-03-12T10:40:38.600Z,6.86
2019-03-12T10:43:28.816Z,6.91
2019-03-12T10:46:18.168Z,6.91
2019-03-12T10:48:48.648Z,7.01
2019-03-12T10:51:19.180Z,7.04
2019-03-12T10:53:49.642Z,7.10
2019-03-12T10:56:20.493Z,7.16
2019-03-12T10:58:51.197Z,7.10
2019-03-12T11:01:21.623Z,7.11
2019-03-12T11:03:52.095Z,7.12
2019-03-12T11:06:22.742Z,7.18
2019-03-12T11:08:53.273Z,7.30
2019-03-12T11:11:23.766Z,7.42
2019-03-12T11:13:54.194Z,7.36
2019-03-12T11:16:24.625Z,7.41
2019-03-12T11:18:55.107Z,7.49
2019-03-12T11:21:26.035Z,7.61
2019-03-12T11:23:56.469Z,7.75
2019-03-12T11:26:27.321Z,7.94
2019-03-12T11:28:57.772Z,8.20
2019-03-12T11:31:28.575Z,8.35
2019-03-12T11:33:59.056Z,8.44
2019-03-12T11:36:30.011Z,8.41
2019-03-12T11:39:00.404Z,8.30
2019-03-12T11:41:31.551Z,8.25
2019-03-12T11:44:02.345Z,8.12
2019-03-12T11:46:41.554Z,7.92
2019-03-12T11:49:05.083Z,8.05
2019-03-12T11:51:35.510Z,8.23
2019-03-12T11:54:06.099Z,8.19
2019-03-12T11:56:36.570Z,8.28
2019-03-12T11:59:07.002Z,8.27
2019-03-12T12:01:37.406Z,8.23
2019-03-12T12:04:08.251Z,8.09
2019-03-12T12:06:42.525Z,7.91
2019-03-12T12:09:11.143Z,7.77
2019-03-12T12:11:41.910Z,7.59
2019-03-12T12:14:12.403Z,7.63
2019-03-12T12:16:44.424Z,7.53
2019-03-12T12:19:15.233Z,7.59
2019-03-12T12:21:45.676Z,7.53
2019-03-12T12:24:16.085Z,7.50
2019-03-12T12:26:46.564Z,7.54
2019-03-12T12:29:17.064Z,7.59
2019-03-12T12:31:47.733Z,7.58
2019-03-12T12:34:19.464Z,7.55
2019-03-12T12:36:49.926Z,7.56
2019-03-12T12:39:20.919Z,7.61
2019-03-12T12:41:51.684Z,7.64
2019-03-12T12:44:22.498Z,7.76
2019-03-12T12:46:53.269Z,7.76
2019-03-12T12:49:24.083Z,7.75
2019-03-12T12:51:54.512Z,7.91
2019-03-12T12:54:24.935Z,7.90
2019-03-12T12:56:55.415Z,7.87
2019-03-12T12:59:25.842Z,7.76
2019-03-12T13:01:56.631Z,7.80
2019-03-12T13:04:27.098Z,7.80
2019-03-12T13:06:57.551Z,7.80
2019-03-12T13:09:27.985Z,7.77
2019-03-12T13:11:58.456Z,7.77
2019-03-12T13:14:40.715Z,7.75
2019-03-12T13:17:01.183Z,7.75
2019-03-12T13:19:31.748Z,7.64
2019-03-12T13:22:02.182Z,7.68
2019-03-12T13:24:33.467Z,7.66
2019-03-12T13:27:03.962Z,7.63
2019-03-12T13:29:34.684Z,7.67
2019-03-12T13:32:13.404Z,7.60
2019-03-12T13:34:37.270Z,7.67
2019-03-12T13:37:08.054Z,7.55
2019-03-12T13:39:38.553Z,7.62
2019-03-12T13:42:09.777Z,7.65
2019-03-12T13:44:40.242Z,7.68
2019-03-12T13:47:10.791Z,7.68
2019-03-12T13:49:41.582Z,7.74
2019-03-12T13:52:12.078Z,7.82
2019-03-12T13:54:42.651Z,7.69
2019-03-12T13:57:13.063Z,7.68
2019-03-12T13:59:43.878Z,7.70
2019-03-12T14:02:14.926Z,7.69
2019-03-12T14:04:45.359Z,7.65
2019-03-12T14:07:15.789Z,7.68
2019-03-12T14:09:46.276Z,7.78
2019-03-12T14:12:17.448Z,7.76
2019-03-12T14:14:47.879Z,7.70
2019-03-12T14:17:18.348Z,7.81
2019-03-12T14:19:48.772Z,7.86
2019-03-12T14:22:19.279Z,7.85
2019-03-12T14:24:49.759Z,7.82
2019-03-12T14:27:20.563Z,7.90
2019-03-12T14:29:51.297Z,7.84
2019-03-12T14:32:21.774Z,7.83
2019-03-12T14:34:52.565Z,7.87
2019-03-12T14:37:22.996Z,7.74
2019-03-12T14:39:53.496Z,7.74
2019-03-12T14:42:23.906Z,7.78
2019-03-12T14:44:54.326Z,7.77
2019-03-12T14:47:24.906Z,7.70
2019-03-12T14:49:55.423Z,7.69
2019-03-12T14:52:30.259Z,7.68
2019-03-12T14:55:01.270Z,7.64
2019-03-12T14:57:31.756Z,7.65
2019-03-12T15:00:02.175Z,7.63
2019-03-12T15:02:33.019Z,7.70
2019-03-12T15:05:03.462Z,7.76
2019-03-12T15:07:33.887Z,7.75
2019-03-12T15:10:05.539Z,7.65
2019-03-12T15:12:35.974Z,7.61
2019-03-12T15:15:06.704Z,7.56
2019-03-12T15:17:37.476Z,7.61
2019-03-12T15:20:09.174Z,7.61
2019-03-12T15:22:39.736Z,7.57
2019-03-12T15:25:10.658Z,7.60
2019-03-12T15:27:41.083Z,7.58
2019-03-12T15:30:14.547Z,7.55
2019-03-12T15:32:45.387Z,7.55
2019-03-12T15:35:15.812Z,7.52
2019-03-12T15:37:46.613Z,7.45
2019-03-12T15:40:17.492Z,7.42
2019-03-12T15:42:47.932Z,7.44
2019-03-12T15:45:18.356Z,7.45
2019-03-12T15:47:49.586Z,7.42
2019-03-12T15:50:20.398Z,7.43
2019-03-12T15:52:50.827Z,7.42
2019-03-12T15:55:21.311Z,7.48
2019-03-12T15:57:52.098Z,7.45
2019-03-12T16:00:22.559Z,7.47
2019-03-12T16:02:53.031Z,7.40
2019-03-12T16:05:23.459Z,7.37
2019-03-12T16:07:54.223Z,7.45
2019-03-12T16:10:24.695Z,7.49
2019-03-12T16:12:55.160Z,7.43
2019-03-12T16:15:25.584Z,7.38
2019-03-12T16:17:56.403Z,7.36
2019-03-12T16:20:27.494Z,7.42
2019-03-12T16:22:57.932Z,7.35
2019-03-12T16:25:28.411Z,7.40
2019-03-12T16:27:58.851Z,7.37
2019-03-12T16:30:29.631Z,7.30
2019-03-12T16:33:00.087Z,7.32
2019-03-12T16:35:31.536Z,7.26
2019-03-12T16:38:01.977Z,7.32
2019-03-12T16:40:33.247Z,7.34
2019-03-12T16:43:04.026Z,7.31
2019-03-12T16:45:35.126Z,7.33
2019-03-12T16:48:05.606Z,7.29
2019-03-12T16:50:36.452Z,7.30
2019-03-12T16:53:06.880Z,7.30
2019-03-12T16:55:37.367Z,7.29
2019-03-12T16:58:08.476Z,7.27
2019-03-12T17:00:38.901Z,7.24
2019-03-12T17:03:09.471Z,7.25
2019-03-12T17:05:40.258Z,7.24
2019-03-12T17:08:11.064Z,7.21
2019-03-12T17:10:54.024Z,7.16
2019-03-12T17:13:13.686Z,7.16
2019-03-12T17:15:44.527Z,7.18
2019-03-12T17:18:15.047Z,7.13
2019-03-12T17:20:46.458Z,7.13
2019-03-12T17:23:16.931Z,7.15
2019-03-12T17:25:47.399Z,7.20
2019-03-12T17:28:17.903Z,7.11
2019-03-12T17:30:48.374Z,7.12
2019-03-12T17:33:18.958Z,7.15
2019-03-12T17:35:50.027Z,7.16
2019-03-12T17:38:20.726Z,7.14
2019-03-12T17:40:51.205Z,7.18
2019-03-12T17:43:21.683Z,7.10
2019-03-12T17:45:52.461Z,7.11
2019-03-12T17:48:22.971Z,7.11
2019-03-12T17:50:53.777Z,7.08
2019-03-12T17:53:24.555Z,7.11
2019-03-12T17:55:55.035Z,7.08
2019-03-12T17:58:25.467Z,7.06
2019-03-12T18:00:56.355Z,7.10
2019-03-12T18:03:27.499Z,7.09
2019-03-12T18:05:57.929Z,7.10
2019-03-12T18:08:28.971Z,7.16
2019-03-12T18:10:59.482Z,7.13
2019-03-12T18:13:30.867Z,7.05
2019-03-12T18:16:01.291Z,7.06
2019-03-12T18:18:34.485Z,7.07
2019-03-12T18:21:04.921Z,7.13
2019-03-12T18:23:35.353Z,7.05
2019-03-12T18:26:08.161Z,7.16
2019-03-12T18:28:41.682Z,7.14
2019-03-12T18:31:14.098Z,7.12
2019-03-12T18:33:44.527Z,7.12
2019-03-12T18:36:14.967Z,7.14
2019-03-12T18:38:45.455Z,7.13
2019-03-12T18:41:17.660Z,7.17
2019-03-12T18:43:48.816Z,7.16
2019-03-12T18:46:20.327Z,7.17
2019-03-12T18:48:51.721Z,7.18
2019-03-12T18:51:24.432Z,7.12
2019-03-12T18:53:55.387Z,7.18
2019-03-12T18:56:26.688Z,7.19
2019-03-12T18:58:57.110Z,7.19
2019-03-12T19:01:27.563Z,7.23
2019-03-12T19:03:58.387Z,7.19
2019-03-12T19:06:30.299Z,7.26
2019-03-12T19:09:01.059Z,7.31
2019-03-12T19:11:32.533Z,7.22
2019-03-12T19:14:04.299Z,7.27
2019-03-12T19:16:35.179Z,7.20
2019-03-12T19:19:06.506Z,7.19
2019-03-12T19:21:36.941Z,7.23
2019-03-12T19:24:07.714Z,7.24
2019-03-12T19:26:40.066Z,7.20
2019-03-12T19:29:10.506Z,7.16
2019-03-12T19:31:56.009Z,7.17
2019-03-12T19:34:31.740Z,7.17
2019-03-12T19:37:02.507Z,7.17
2019-03-12T19:39:33.348Z,7.20
2019-03-12T19:42:03.771Z,7.19
2019-03-12T19:44:34.258Z,7.24
2019-03-12T19:47:05.030Z,7.24
2019-03-12T19:49:35.798Z,7.14
2019-03-12T19:52:06.272Z,7.26
2019-03-12T19:54:37.609Z,7.29
2019-03-12T19:57:09.351Z,7.21
2019-03-12T19:59:39.853Z,7.12
2019-03-12T20:02:16.067Z,7.19
2019-03-12T20:04:47.426Z,7.26
2019-03-12T20:07:18.836Z,7.24
2019-03-12T20:10:02.803Z,7.24
2019-03-12T20:13:08.915Z,7.25
2019-03-12T20:16:38.296Z,7.28
2019-03-12T20:19:48.626Z,7.27
2019-03-12T20:23:12.319Z,7.37
2019-03-12T20:26:28.447Z,7.43
2019-03-12T20:29:34.907Z,7.35
2019-03-12T20:32:48.165Z,7.37
2019-03-12T20:36:00.399Z,7.38
2019-03-12T20:39:11.013Z,7.35
2019-03-12T20:42:32.080Z,7.41
2019-03-12T20:45:43.374Z,7.32
2019-03-12T20:48:52.847Z,7.43
2019-03-12T20:51:59.122Z,7.42
2019-03-12T20:55:07.235Z,7.51
2019-03-12T20:58:16.231Z,7.62
2019-03-12T21:01:30.930Z,7.58
2019-03-12T21:04:29.862Z,7.64
2019-03-12T21:07:41.227Z,7.72
2019-03-12T21:10:52.592Z,7.61
2019-03-12T21:14:19.054Z,7.73
2019-03-12T21:17:21.547Z,7.75
2019-03-12T21:20:30.498Z,7.90
2019-03-12T21:23:29.179Z,7.90
2019-03-12T21:26:35.679Z,7.79
2019-03-12T21:29:47.359Z,7.91
2019-03-12T21:32:18.877Z,7.87
2019-03-12T21:34:49.821Z,7.89
2019-03-12T21:37:20.805Z,8.08
2019-03-12T21:39:55.666Z,8.10
2019-03-12T21:42:25.244Z,8.09
2019-03-12T21:44:55.719Z,8.11
2019-03-12T21:47:26.596Z,7.99
2019-03-12T21:49:57.755Z,7.98
2019-03-12T21:52:28.187Z,7.94
2019-03-12T21:54:58.794Z,8.03
2019-03-12T21:57:29.316Z,8.03
2019-03-12T21:59:59.731Z,7.96
2019-03-12T22:02:30.163Z,8.07
2019-03-12T22:05:00.902Z,8.00
2019-03-12T22:07:31.709Z,8.00
2019-03-12T22:10:02.127Z,7.95
2019-03-12T22:12:32.591Z,8.03
2019-03-12T22:15:03.014Z,8.02
2019-03-12T22:17:33.440Z,8.04
2019-03-12T22:20:04.020Z,8.08
2019-03-12T22:22:38.958Z,8.07
2019-03-12T22:25:11.320Z,8.11
2019-03-12T22:27:41.740Z,8.14
2019-03-12T22:30:15.486Z,8.09
2019-03-12T22:32:46.422Z,8.11
2019-03-12T22:35:16.846Z,8.00
2019-03-12T22:37:47.751Z,7.93
2019-03-12T22:40:18.171Z,7.85
2019-03-12T22:42:48.621Z,7.83
2019-03-12T22:45:19.046Z,7.78
2019-03-12T22:47:50.025Z,7.72
2019-03-12T22:50:20.470Z,7.72
2019-03-12T22:52:51.014Z,7.79
2019-03-12T22:55:21.431Z,7.76
2019-03-12T22:57:51.857Z,7.81
2019-03-12T23:00:22.658Z,7.78
2019-03-12T23:02:53.142Z,7.88
2019-03-12T23:05:23.567Z,7.82
2019-03-12T23:07:54.384Z,7.82
2019-03-12T23:10:25.308Z,7.86
2019-03-12T23:12:55.732Z,7.85
2019-03-12T23:15:26.474Z,7.81
2019-03-12T23:17:57.225Z,7.90
2019-03-12T23:20:27.652Z,7.93
2019-03-12T23:22:58.128Z,7.93
2019-03-12T23:25:28.552Z,8.11
2019-03-12T23:27:59.078Z,8.11
2019-03-12T23:30:29.600Z,8.18
2019-03-12T23:33:00.118Z,8.22
2019-03-12T23:35:30.608Z,8.22
2019-03-12T23:38:01.122Z,8.26
2019-03-12T23:40:31.930Z,8.24
2019-03-12T23:43:02.388Z,8.33
2019-03-12T23:45:33.185Z,8.44
2019-03-12T23:48:03.615Z,8.36
2019-03-12T23:50:34.322Z,8.37
2019-03-12T23:53:04.840Z,8.31
2019-03-12T23:55:35.288Z,8.25
2019-03-12T23:58:05.889Z,8.21
